createdAt,value
2023-01-13T00:00:22.330Z,7.99
2023-01-13T00:01:24.013Z,7.99
2023-01-13T00:02:25.769Z,7.98
2023-01-13T00:03:27.488Z,7.99
2023-01-13T00:04:29.273Z,7.99
2023-01-13T00:05:30.960Z,8
2023-01-13T00:06:32.684Z,8
2023-01-13T00:07:34.425Z,8.01
2023-01-13T00:08:36.164Z,7.99
2023-01-13T00:09:37.876Z,7.99
2023-01-13T00:10:39.609Z,7.99
2023-01-13T00:11:41.345Z,7.98
2023-01-13T00:12:43.191Z,7.96
2023-01-13T00:13:44.816Z,7.96
2023-01-13T00:14:46.548Z,7.95
2023-01-13T00:15:48.316Z,7.95
2023-01-13T00:16:49.999Z,7.95
2023-01-13T00:17:51.740Z,7.96
2023-01-13T00:18:53.486Z,7.96
2023-01-13T00:19:55.220Z,7.96
2023-01-13T00:20:56.966Z,7.97
2023-01-13T00:21:58.675Z,7.98
2023-01-13T00:23:00.417Z,7.97
2023-01-13T00:24:02.140Z,7.98
2023-01-13T00:25:03.890Z,7.98
2023-01-13T00:26:05.651Z,7.98
2023-01-13T00:27:07.348Z,7.99
2023-01-13T00:28:09.077Z,8
2023-01-13T00:29:11.036Z,8
2023-01-13T00:30:12.539Z,8
2023-01-13T00:31:14.406Z,8
2023-01-13T00:32:16.038Z,8.02
2023-01-13T00:33:17.729Z,8.02
2023-01-13T00:34:19.483Z,8.02
2023-01-13T00:35:21.216Z,8.03
2023-01-13T00:36:22.951Z,8.03
2023-01-13T00:37:24.554Z,8.03
2023-01-13T00:38:26.287Z,8.03
2023-01-13T00:39:27.995Z,8.04
2023-01-13T00:40:29.725Z,8.04
2023-01-13T00:41:31.466Z,8.05
2023-01-13T00:42:33.196Z,8.05
2023-01-13T00:43:34.933Z,8.05
2023-01-13T00:44:36.662Z,8.05
2023-01-13T00:45:38.386Z,8.05
2023-01-13T00:46:40.162Z,8.06
2023-01-13T00:47:41.879Z,8.06
2023-01-13T00:48:43.611Z,8.07
2023-01-13T00:49:45.339Z,8.06
2023-01-13T00:50:47.068Z,8.06
2023-01-13T00:51:48.812Z,8.06
2023-01-13T00:52:50.532Z,8.08
2023-01-13T00:53:52.275Z,8.07
2023-01-13T00:54:54.014Z,8.07
2023-01-13T00:55:55.764Z,8.07
2023-01-13T00:56:57.475Z,8.07
2023-01-13T00:57:59.190Z,8.08
2023-01-13T00:59:00.951Z,8.08
2023-01-13T01:00:02.672Z,8.08
2023-01-13T01:01:04.536Z,8.08
2023-01-13T01:02:06.341Z,8.09
2023-01-13T01:03:07.876Z,8.1
2023-01-13T01:04:09.609Z,8.1
2023-01-13T01:05:11.340Z,8.11
2023-01-13T01:06:13.081Z,8.11
2023-01-13T01:07:14.808Z,8.11
2023-01-13T01:08:16.549Z,8.11
2023-01-13T01:09:18.277Z,8.12
2023-01-13T01:10:20.010Z,8.13
2023-01-13T01:11:21.757Z,8.13
2023-01-13T01:12:23.504Z,8.13
2023-01-13T01:13:25.238Z,8.13
2023-01-13T01:14:26.939Z,8.15
2023-01-13T01:15:28.694Z,8.15
2023-01-13T01:16:30.527Z,8.15
2023-01-13T01:17:32.143Z,8.15
2023-01-13T01:18:33.901Z,8.17
2023-01-13T01:19:35.627Z,8.17
2023-01-13T01:20:37.433Z,8.19
2023-01-13T01:21:39.114Z,8.18
2023-01-13T01:22:40.810Z,8.19
2023-01-13T01:23:42.588Z,8.19
2023-01-13T01:24:44.276Z,8.21
2023-01-13T01:25:46.011Z,8.2
2023-01-13T01:26:47.746Z,8.21
2023-01-13T01:27:49.488Z,8.21
2023-01-13T01:28:51.217Z,8.21
2023-01-13T01:29:52.965Z,8.21
2023-01-13T01:30:54.677Z,8.22
2023-01-13T01:31:56.415Z,8.22
2023-01-13T01:32:58.148Z,8.23
2023-01-13T01:33:59.904Z,8.23
2023-01-13T01:35:01.610Z,8.23
2023-01-13T01:36:03.348Z,8.24
2023-01-13T01:37:05.083Z,8.24
2023-01-13T01:38:06.810Z,8.25
2023-01-13T01:39:08.581Z,8.24
2023-01-13T01:40:10.290Z,8.25
2023-01-13T01:41:12.010Z,8.26
2023-01-13T01:42:13.758Z,8.26
2023-01-13T01:43:15.471Z,8.27
2023-01-13T01:44:17.206Z,8.26
2023-01-13T01:45:18.959Z,8.26
2023-01-13T01:46:20.775Z,8.26
2023-01-13T01:47:22.410Z,8.26
2023-01-13T01:48:24.165Z,8.27
2023-01-13T01:49:25.884Z,8.26
2023-01-13T01:50:27.598Z,8.27
2023-01-13T01:51:29.450Z,8.26
2023-01-13T01:52:31.111Z,8.26
2023-01-13T01:53:32.825Z,8.25
2023-01-13T01:54:34.559Z,8.25
2023-01-13T01:55:36.276Z,8.25
2023-01-13T01:56:38.012Z,8.24
2023-01-13T01:57:39.759Z,8.23
2023-01-13T01:58:41.504Z,8.24
2023-01-13T01:59:43.235Z,8.22
2023-01-13T02:00:45.022Z,8.22
2023-01-13T02:01:46.876Z,8.22
2023-01-13T02:02:48.417Z,8.21
2023-01-13T02:03:50.158Z,8.21
2023-01-13T02:04:51.894Z,8.2
2023-01-13T02:05:53.646Z,8.2
2023-01-13T02:06:55.357Z,8.19
2023-01-13T02:07:57.101Z,8.19
2023-01-13T02:08:58.837Z,8.19
2023-01-13T02:10:00.565Z,8.18
2023-01-13T02:11:02.303Z,8.18
2023-01-13T02:12:04.035Z,8.17
2023-01-13T02:13:05.770Z,8.16
2023-01-13T02:14:07.513Z,8.16
2023-01-13T02:15:09.214Z,8.16
2023-01-13T02:16:11.026Z,8.16
2023-01-13T02:17:12.698Z,8.15
2023-01-13T02:18:14.435Z,8.15
2023-01-13T02:19:16.189Z,8.15
2023-01-13T02:20:17.900Z,8.15
2023-01-13T02:21:19.628Z,8.14
2023-01-13T02:22:21.364Z,8.14
2023-01-13T02:23:23.107Z,8.14
2023-01-13T02:24:24.829Z,8.14
2023-01-13T02:25:26.579Z,8.14
2023-01-13T02:26:28.298Z,8.14
2023-01-13T02:27:30.035Z,8.14
2023-01-13T02:28:31.793Z,8.14
2023-01-13T02:29:33.506Z,8.12
2023-01-13T02:30:35.237Z,8.13
2023-01-13T02:31:37.034Z,8.13
2023-01-13T02:32:38.697Z,8.13
2023-01-13T02:33:40.437Z,8.13
2023-01-13T02:34:42.166Z,8.14
2023-01-13T02:35:43.909Z,8.13
2023-01-13T02:36:45.646Z,8.13
2023-01-13T02:37:47.376Z,8.14
2023-01-13T02:38:49.129Z,8.14
2023-01-13T02:39:50.843Z,8.13
2023-01-13T02:40:52.579Z,8.14
2023-01-13T02:41:54.314Z,8.14
2023-01-13T02:42:56.064Z,8.14
2023-01-13T02:43:57.795Z,8.15
2023-01-13T02:44:59.512Z,8.14
2023-01-13T02:46:01.304Z,8.14
2023-01-13T02:47:02.983Z,8.15
2023-01-13T02:48:04.726Z,8.15
2023-01-13T02:49:06.477Z,8.15
2023-01-13T02:50:08.194Z,8.14
2023-01-13T02:51:09.915Z,8.15
2023-01-13T02:52:11.674Z,8.14
2023-01-13T02:53:13.389Z,8.14
2023-01-13T02:54:15.134Z,8.16
2023-01-13T02:55:16.851Z,8.16
2023-01-13T02:56:18.595Z,8.16
2023-01-13T02:57:20.328Z,8.15
2023-01-13T02:58:22.087Z,8.17
2023-01-13T02:59:23.787Z,8.17
2023-01-13T03:00:25.543Z,8.17
2023-01-13T03:01:27.430Z,8.18
2023-01-13T03:02:29.055Z,8.17
2023-01-13T03:03:30.741Z,8.18
2023-01-13T03:04:32.484Z,8.19
2023-01-13T03:05:34.217Z,8.19
2023-01-13T03:06:35.976Z,8.2
2023-01-13T03:07:37.688Z,8.21
2023-01-13T03:08:39.496Z,8.21
2023-01-13T03:09:41.139Z,8.2
2023-01-13T03:10:42.865Z,8.21
2023-01-13T03:11:44.615Z,8.22
2023-01-13T03:12:46.345Z,8.22
2023-01-13T03:13:48.090Z,8.23
2023-01-13T03:14:49.806Z,8.23
2023-01-13T03:15:51.551Z,8.24
2023-01-13T03:16:53.342Z,8.24
2023-01-13T03:17:55.004Z,8.25
2023-01-13T03:18:56.783Z,8.26
2023-01-13T03:21:00.184Z,8.26
2023-01-13T03:22:00.753Z,8.25
2023-01-13T03:22:01.974Z,8.27
2023-01-13T03:23:03.707Z,8.28
2023-01-13T03:24:05.417Z,8.28
2023-01-13T03:25:07.141Z,8.29
2023-01-13T03:26:08.883Z,8.3
2023-01-13T03:27:10.615Z,8.3
2023-01-13T03:28:12.354Z,8.31
2023-01-13T03:29:14.092Z,8.32
2023-01-13T03:30:15.808Z,8.33
2023-01-13T03:31:17.553Z,8.35
2023-01-13T03:32:19.260Z,8.35
2023-01-13T03:33:21.038Z,8.37
2023-01-13T03:34:22.744Z,8.39
2023-01-13T03:35:24.487Z,8.38
2023-01-13T03:36:26.232Z,8.39
2023-01-13T03:37:27.951Z,8.4
2023-01-13T03:38:29.700Z,8.4
2023-01-13T03:39:31.427Z,8.41
2023-01-13T03:40:33.164Z,8.42
2023-01-13T03:41:34.878Z,8.42
2023-01-13T03:42:36.623Z,8.43
2023-01-13T03:43:38.379Z,8.43
2023-01-13T03:44:40.134Z,8.44
2023-01-13T03:45:41.840Z,8.45
2023-01-13T03:46:43.539Z,8.45
2023-01-13T03:47:45.279Z,8.45
2023-01-13T03:48:47.034Z,8.45
2023-01-13T03:49:48.750Z,8.46
2023-01-13T03:50:50.507Z,8.46
2023-01-13T03:51:52.214Z,8.47
2023-01-13T03:52:53.948Z,8.47
2023-01-13T03:53:55.696Z,8.47
2023-01-13T03:54:57.410Z,8.47
2023-01-13T03:55:59.143Z,8.46
2023-01-13T03:57:00.895Z,8.47
2023-01-13T03:58:02.680Z,8.47
2023-01-13T03:59:04.371Z,8.47
2023-01-13T04:00:06.098Z,8.47
2023-01-13T04:01:08.011Z,8.47
2023-01-13T04:02:09.744Z,8.47
2023-01-13T04:03:11.341Z,8.47
2023-01-13T04:04:13.033Z,8.48
2023-01-13T04:05:14.765Z,8.47
2023-01-13T04:06:16.496Z,8.46
2023-01-13T04:07:18.233Z,8.46
2023-01-13T04:08:19.975Z,8.47
2023-01-13T04:09:21.716Z,8.47
2023-01-13T04:10:23.449Z,8.46
2023-01-13T04:11:25.165Z,8.46
2023-01-13T04:12:26.894Z,8.46
2023-01-13T04:13:28.672Z,8.45
2023-01-13T04:14:30.367Z,8.46
2023-01-13T04:15:32.166Z,8.45
2023-01-13T04:16:35.668Z,8.46
2023-01-13T04:17:35.558Z,8.46
2023-01-13T04:18:37.326Z,8.45
2023-01-13T04:19:39.054Z,8.44
2023-01-13T04:20:40.783Z,8.45
2023-01-13T04:21:42.500Z,8.45
2023-01-13T04:22:44.246Z,8.45
2023-01-13T04:23:45.969Z,8.45
2023-01-13T04:24:47.714Z,8.45
2023-01-13T04:25:49.438Z,8.45
2023-01-13T04:26:51.182Z,8.46
2023-01-13T04:27:52.905Z,8.45
2023-01-13T04:28:54.644Z,8.45
2023-01-13T04:29:56.370Z,8.45
2023-01-13T04:30:58.168Z,8.46
2023-01-13T04:31:59.845Z,8.47
2023-01-13T04:33:01.596Z,8.47
2023-01-13T04:34:03.302Z,8.48
2023-01-13T04:35:05.052Z,8.49
2023-01-13T04:36:06.785Z,8.5
2023-01-13T04:37:08.488Z,8.5
2023-01-13T04:38:10.246Z,8.5
2023-01-13T04:39:11.981Z,8.51
2023-01-13T04:40:13.709Z,8.52
2023-01-13T04:41:15.677Z,8.53
2023-01-13T04:42:17.194Z,8.53
2023-01-13T04:43:18.933Z,8.53
2023-01-13T04:44:20.625Z,8.52
2023-01-13T04:45:22.383Z,8.53
2023-01-13T04:46:24.171Z,8.53
2023-01-13T04:47:25.826Z,8.52
2023-01-13T04:48:27.583Z,8.51
2023-01-13T04:49:29.308Z,8.5
2023-01-13T04:50:31.052Z,8.47
2023-01-13T04:51:32.781Z,8.44
2023-01-13T04:52:34.504Z,8.42
2023-01-13T04:53:36.256Z,8.4
2023-01-13T04:54:37.982Z,8.39
2023-01-13T04:55:39.761Z,8.36
2023-01-13T04:56:41.437Z,8.33
2023-01-13T04:57:43.186Z,8.31
2023-01-13T04:58:44.934Z,8.28
2023-01-13T04:59:46.652Z,8.25
2023-01-13T05:00:48.390Z,8.23
2023-01-13T05:01:50.303Z,8.21
2023-01-13T05:02:51.870Z,8.19
2023-01-13T05:03:53.592Z,8.17
2023-01-13T05:04:55.392Z,8.15
2023-01-13T05:05:57.042Z,8.13
2023-01-13T05:06:58.825Z,8.12
2023-01-13T05:08:00.556Z,8.1
2023-01-13T05:09:02.275Z,8.09
2023-01-13T05:10:04.014Z,8.08
2023-01-13T05:11:05.712Z,8.07
2023-01-13T05:12:07.436Z,8.04
2023-01-13T05:13:09.185Z,8.03
2023-01-13T05:14:10.932Z,8.02
2023-01-13T05:15:12.705Z,8.01
2023-01-13T05:16:14.419Z,8
2023-01-13T05:17:16.132Z,7.99
2023-01-13T05:18:17.842Z,7.99
2023-01-13T05:19:19.579Z,7.98
2023-01-13T05:20:21.377Z,7.97
2023-01-13T05:21:23.050Z,7.96
2023-01-13T05:22:24.780Z,7.95
2023-01-13T05:23:26.543Z,7.94
2023-01-13T05:24:28.245Z,7.93
2023-01-13T05:25:29.979Z,7.93
2023-01-13T05:26:31.723Z,7.92
2023-01-13T05:27:33.474Z,7.91
2023-01-13T05:28:35.207Z,7.91
2023-01-13T05:29:36.915Z,7.9
2023-01-13T05:30:38.652Z,7.89
2023-01-13T05:31:40.399Z,7.88
2023-01-13T05:32:42.101Z,7.86
2023-01-13T05:33:43.876Z,7.84
2023-01-13T05:34:45.582Z,7.82
2023-01-13T05:35:47.314Z,7.79
2023-01-13T05:36:49.056Z,7.77
2023-01-13T05:37:50.785Z,7.75
2023-01-13T05:38:52.538Z,7.73
2023-01-13T05:39:54.252Z,7.7
2023-01-13T05:40:58.170Z,7.68
2023-01-13T05:41:57.752Z,7.67
2023-01-13T05:42:59.455Z,7.65
2023-01-13T05:44:01.186Z,7.62
2023-01-13T05:45:02.941Z,7.6
2023-01-13T05:46:04.781Z,7.59
2023-01-13T05:47:06.393Z,7.55
2023-01-13T05:48:08.105Z,7.52
2023-01-13T05:49:10.877Z,7.49
2023-01-13T05:50:11.587Z,7.47
2023-01-13T05:51:13.372Z,7.43
2023-01-13T05:52:15.069Z,7.39
2023-01-13T05:53:16.779Z,7.37
2023-01-13T05:54:18.523Z,7.32
2023-01-13T05:55:20.253Z,7.29
2023-01-13T05:56:22.011Z,7.27
2023-01-13T05:57:23.743Z,7.23
2023-01-13T05:58:25.465Z,7.2
2023-01-13T05:59:27.203Z,7.17
2023-01-13T06:00:28.960Z,7.13
2023-01-13T06:01:30.723Z,7.08
2023-01-13T06:02:32.429Z,7.03
2023-01-13T06:03:34.140Z,6.99
2023-01-13T06:04:35.982Z,6.95
2023-01-13T06:05:37.592Z,6.92
2023-01-13T06:06:39.329Z,6.88
2023-01-13T06:07:41.062Z,6.85
2023-01-13T06:08:42.796Z,6.82
2023-01-13T06:09:44.540Z,6.8
2023-01-13T06:10:45.068Z,6.76
2023-01-13T06:11:45.866Z,6.74
2023-01-13T06:12:50.264Z,6.7
2023-01-13T06:14:10.227Z,6.66
2023-01-13T06:15:11.994Z,6.64
2023-01-13T06:16:13.770Z,6.62
2023-01-13T06:17:15.423Z,6.6
2023-01-13T06:18:17.104Z,6.58
2023-01-13T06:19:18.828Z,6.55
2023-01-13T06:20:20.580Z,6.53
2023-01-13T06:21:22.269Z,6.51
2023-01-13T06:22:24.007Z,6.5
2023-01-13T06:23:25.735Z,6.48
2023-01-13T06:24:27.459Z,6.47
2023-01-13T06:25:29.187Z,6.45
2023-01-13T06:26:30.903Z,6.44
2023-01-13T06:27:32.629Z,6.43
2023-01-13T06:28:35.372Z,6.42
2023-01-13T06:29:36.109Z,6.4
2023-01-13T06:30:37.821Z,6.38
2023-01-13T06:31:39.597Z,6.37
2023-01-13T06:32:41.264Z,6.35
2023-01-13T06:33:43.004Z,6.33
2023-01-13T06:34:44.714Z,6.32
2023-01-13T06:35:46.472Z,6.3
2023-01-13T06:36:48.175Z,6.29
2023-01-13T06:37:49.905Z,6.28
2023-01-13T06:38:51.600Z,6.26
2023-01-13T06:39:53.327Z,6.26
2023-01-13T06:40:55.145Z,6.25
2023-01-13T06:41:56.780Z,6.23
2023-01-13T06:42:58.496Z,6.22
2023-01-13T06:44:00.249Z,6.21
2023-01-13T06:45:01.947Z,6.2
2023-01-13T06:46:03.719Z,6.19
2023-01-13T06:47:05.410Z,6.18
2023-01-13T06:48:07.139Z,6.17
2023-01-13T06:49:08.867Z,6.16
2023-01-13T06:50:10.689Z,6.15
2023-01-13T06:51:12.326Z,6.14
2023-01-13T06:52:14.077Z,6.13
2023-01-13T06:53:15.787Z,6.12
2023-01-13T06:54:18.865Z,6.1
2023-01-13T06:55:19.932Z,6.1
2023-01-13T06:56:22.106Z,6.08
2023-01-13T06:57:30.491Z,6.07
2023-01-13T06:58:32.331Z,6.05
2023-01-13T06:59:33.980Z,6.04
2023-01-13T07:00:36.801Z,6.04
2023-01-13T07:01:37.553Z,6.02
2023-01-13T07:02:39.268Z,6.03
2023-01-13T07:03:40.919Z,6.02
2023-01-13T07:04:42.642Z,6.01
2023-01-13T07:05:44.397Z,6.02
2023-01-13T07:06:46.110Z,6.01
2023-01-13T07:07:47.824Z,6.01
2023-01-13T07:08:49.576Z,6.01
2023-01-13T07:09:51.359Z,6.01
2023-01-13T07:12:14.541Z,6
2023-01-13T07:13:17.526Z,5.99
2023-01-13T07:14:18.029Z,5.98
2023-01-13T07:15:19.761Z,5.97
2023-01-13T07:16:21.677Z,5.95
2023-01-13T07:17:23.194Z,5.93
2023-01-13T07:18:24.951Z,5.89
2023-01-13T07:19:26.696Z,5.87
2023-01-13T07:20:30.326Z,5.84
2023-01-13T07:21:34.333Z,5.8
2023-01-13T07:23:10.343Z,5.75
2023-01-13T07:24:10.982Z,5.73
2023-01-13T07:25:31.345Z,5.68
2023-01-13T07:26:31.721Z,5.65
2023-01-13T07:27:33.454Z,5.61
2023-01-13T07:28:35.202Z,5.58
2023-01-13T07:29:36.065Z,5.56
2023-01-13T07:30:43.860Z,5.52
2023-01-13T07:31:46.774Z,5.5
2023-01-13T07:32:47.353Z,5.48
2023-01-13T07:34:57.871Z,5.45
2023-01-13T07:35:59.311Z,5.43
2023-01-13T07:37:01.050Z,5.43
2023-01-13T07:38:02.779Z,5.43
2023-01-13T07:39:04.505Z,5.44
2023-01-13T07:40:06.249Z,5.45
2023-01-13T07:41:07.972Z,5.47
2023-01-13T07:42:09.710Z,5.48
2023-01-13T07:43:11.443Z,5.5
2023-01-13T07:44:13.208Z,5.52
2023-01-13T07:45:14.919Z,5.53
2023-01-13T07:46:16.680Z,5.55
2023-01-13T07:47:18.393Z,5.57
2023-01-13T07:48:20.114Z,5.58
2023-01-13T07:49:21.842Z,5.59
2023-01-13T07:50:23.595Z,5.6
2023-01-13T07:51:25.325Z,5.61
2023-01-13T07:52:27.035Z,5.62
2023-01-13T07:54:02.469Z,5.64
2023-01-13T07:55:04.207Z,5.66
2023-01-13T07:56:05.941Z,5.66
2023-01-13T07:57:07.679Z,5.67
2023-01-13T07:58:09.416Z,5.69
2023-01-13T07:59:11.143Z,5.7
2023-01-13T08:00:13.081Z,5.71
2023-01-13T08:01:14.726Z,5.72
2023-01-13T08:02:16.609Z,5.73
2023-01-13T08:03:18.072Z,5.75
2023-01-13T08:04:19.835Z,5.75
2023-01-13T08:05:21.584Z,5.77
2023-01-13T08:06:23.305Z,5.77
2023-01-13T08:07:24.998Z,5.79
2023-01-13T08:08:26.755Z,5.78
2023-01-13T08:09:43.682Z,5.8
2023-01-13T08:10:46.559Z,5.8
2023-01-13T08:11:47.114Z,5.81
2023-01-13T08:12:51.945Z,5.82
2023-01-13T08:13:50.537Z,5.82
2023-01-13T08:14:52.274Z,5.84
2023-01-13T08:15:54.067Z,5.85
2023-01-13T08:16:55.729Z,5.87
2023-01-13T08:17:57.586Z,5.88
2023-01-13T08:18:59.211Z,5.9
2023-01-13T08:20:11.144Z,5.92
2023-01-13T08:21:14.245Z,5.93
2023-01-13T08:22:14.670Z,5.95
2023-01-13T08:23:16.384Z,5.96
2023-01-13T08:24:18.158Z,5.98
2023-01-13T08:25:19.799Z,5.99
2023-01-13T08:26:21.525Z,5.99
2023-01-13T08:27:23.281Z,6
2023-01-13T08:28:24.982Z,6.02
2023-01-13T08:29:26.707Z,6.03
2023-01-13T08:30:28.698Z,6.04
2023-01-13T08:31:30.155Z,6.05
2023-01-13T08:32:31.914Z,6.06
2023-01-13T08:33:33.662Z,6.07
2023-01-13T08:34:35.357Z,6.08
2023-01-13T08:35:37.073Z,6.08
2023-01-13T08:36:38.787Z,6.1
2023-01-13T08:37:40.509Z,6.1
2023-01-13T08:38:42.282Z,6.11
2023-01-13T08:39:43.966Z,6.11
2023-01-13T08:40:45.701Z,6.16
2023-01-13T08:41:47.413Z,6.16
2023-01-13T08:42:49.150Z,6.22
2023-01-13T08:43:50.871Z,6.21
2023-01-13T08:44:52.585Z,6.19
2023-01-13T08:45:54.366Z,6.19
2023-01-13T08:46:56.056Z,6.17
2023-01-13T08:47:57.768Z,6.16
2023-01-13T08:48:59.523Z,6.14
2023-01-13T08:50:01.224Z,6.13
2023-01-13T08:51:02.956Z,6.12
2023-01-13T08:52:04.703Z,6.18
2023-01-13T08:53:06.409Z,6.25
2023-01-13T08:54:08.140Z,6.31
2023-01-13T08:55:09.846Z,6.36
2023-01-13T08:56:11.639Z,6.43
2023-01-13T08:57:13.393Z,6.47
2023-01-13T08:58:16.192Z,6.54
2023-01-13T08:59:16.837Z,6.59
2023-01-13T09:00:18.544Z,6.64
2023-01-13T09:01:20.396Z,6.68
2023-01-13T09:02:22.080Z,6.73
2023-01-13T09:03:23.731Z,6.78
2023-01-13T09:04:25.509Z,6.82
2023-01-13T09:05:27.183Z,6.86
2023-01-13T09:06:28.959Z,6.91
2023-01-13T09:07:30.668Z,6.93
2023-01-13T09:08:32.440Z,6.98
2023-01-13T09:09:34.231Z,6.99
2023-01-13T09:10:35.918Z,7.02
2023-01-13T09:11:37.598Z,7.03
2023-01-13T09:12:39.329Z,7.05
2023-01-13T09:13:41.057Z,7.06
2023-01-13T09:14:42.765Z,7.07
2023-01-13T09:15:44.541Z,7.1
2023-01-13T09:16:46.212Z,7.1
2023-01-13T09:17:47.951Z,7.13
2023-01-13T09:18:49.666Z,7.14
2023-01-13T09:19:51.408Z,7.15
2023-01-13T09:20:53.138Z,7.16
2023-01-13T09:21:54.881Z,7.18
2023-01-13T09:22:56.596Z,7.19
2023-01-13T09:23:58.345Z,7.21
2023-01-13T09:25:00.107Z,7.24
2023-01-13T09:26:01.826Z,7.28
2023-01-13T09:27:03.563Z,7.32
2023-01-13T09:28:05.279Z,7.36
2023-01-13T09:29:07.008Z,7.39
2023-01-13T09:30:08.755Z,7.43
2023-01-13T09:31:10.528Z,7.48
2023-01-13T09:32:12.215Z,7.52
2023-01-13T09:33:13.931Z,7.54
2023-01-13T09:34:15.691Z,7.6
2023-01-13T09:35:17.420Z,7.6
2023-01-13T09:36:19.151Z,7.63
2023-01-13T09:37:20.882Z,7.67
2023-01-13T09:38:22.681Z,7.69
2023-01-13T09:39:24.359Z,7.71
2023-01-13T09:40:26.084Z,7.76
2023-01-13T09:41:27.822Z,7.78
2023-01-13T09:42:29.568Z,7.81
2023-01-13T09:43:31.311Z,7.85
2023-01-13T09:44:33.015Z,7.9
2023-01-13T09:45:34.762Z,7.89
2023-01-13T09:46:36.581Z,7.93
2023-01-13T09:47:38.208Z,7.93
2023-01-13T09:48:39.975Z,7.96
2023-01-13T09:49:41.686Z,7.98
2023-01-13T09:50:43.456Z,7.99
2023-01-13T09:51:45.221Z,8.03
2023-01-13T09:52:46.890Z,8.05
2023-01-13T09:53:48.602Z,7.98
2023-01-13T09:54:50.347Z,7.94
2023-01-13T09:55:53.627Z,7.91
2023-01-13T09:56:53.795Z,7.86
2023-01-13T09:57:57.031Z,7.79
2023-01-13T09:58:57.261Z,7.76
2023-01-13T09:59:59.038Z,7.75
2023-01-13T10:01:00.765Z,7.72
2023-01-13T10:02:02.455Z,7.68
2023-01-13T10:03:04.295Z,7.63
2023-01-13T10:04:07.784Z,7.6
2023-01-13T10:05:07.731Z,7.56
2023-01-13T10:06:09.389Z,7.58
2023-01-13T10:07:11.156Z,7.62
2023-01-13T10:08:12.861Z,7.62
2023-01-13T10:09:16.133Z,7.6
2023-01-13T10:10:16.351Z,7.55
2023-01-13T10:11:18.098Z,7.56
2023-01-13T10:12:19.807Z,7.51
2023-01-13T10:13:21.543Z,7.47
2023-01-13T10:14:23.297Z,7.52
2023-01-13T10:15:24.991Z,7.58
2023-01-13T10:16:26.757Z,7.56
2023-01-13T10:17:28.480Z,7.51
2023-01-13T10:18:30.218Z,7.45
2023-01-13T10:19:31.947Z,7.38
2023-01-13T10:20:33.695Z,7.29
2023-01-13T10:21:35.606Z,7.26
2023-01-13T10:22:37.234Z,7.21
2023-01-13T10:23:38.909Z,7.14
2023-01-13T10:24:40.616Z,7.1
2023-01-13T10:25:42.335Z,7.09
2023-01-13T10:26:44.075Z,7.08
2023-01-13T10:27:45.820Z,7.15
2023-01-13T10:28:47.564Z,7.2
2023-01-13T10:29:49.285Z,7.09
2023-01-13T10:30:51.053Z,7.11
2023-01-13T10:31:52.759Z,7.22
2023-01-13T10:32:54.472Z,7.15
2023-01-13T10:33:56.238Z,7.11
2023-01-13T10:34:57.946Z,7.06
2023-01-13T10:35:59.712Z,7
2023-01-13T10:37:01.400Z,6.94
2023-01-13T10:38:03.137Z,6.89
2023-01-13T10:39:04.886Z,6.8
2023-01-13T10:40:06.628Z,6.71
2023-01-13T10:41:08.355Z,6.65
2023-01-13T10:42:10.057Z,6.57
2023-01-13T10:43:11.803Z,6.49
2023-01-13T10:44:13.543Z,6.42
2023-01-13T10:45:15.285Z,6.35
2023-01-13T10:46:17.036Z,6.28
2023-01-13T10:47:18.762Z,6.22
2023-01-13T10:48:20.506Z,6.16
2023-01-13T10:49:22.218Z,6.15
2023-01-13T10:50:23.970Z,6.14
2023-01-13T10:51:25.694Z,6.14
2023-01-13T10:52:27.556Z,6.19
2023-01-13T10:53:29.162Z,6.26
2023-01-13T10:54:30.893Z,6.34
2023-01-13T10:55:32.605Z,6.4
2023-01-13T10:56:34.511Z,6.48
2023-01-13T10:57:36.074Z,6.55
2023-01-13T10:58:37.824Z,6.63
2023-01-13T10:59:39.565Z,6.69
2023-01-13T11:00:41.286Z,6.76
2023-01-13T11:01:43.169Z,6.82
2023-01-13T11:02:44.787Z,6.85
2023-01-13T11:03:46.567Z,6.91
2023-01-13T11:04:48.277Z,6.96
2023-01-13T11:05:49.950Z,6.98
2023-01-13T11:06:51.671Z,6.99
2023-01-13T11:07:53.394Z,7
2023-01-13T11:08:55.191Z,6.99
2023-01-13T11:09:56.889Z,6.99
2023-01-13T11:10:59.688Z,7.02
2023-01-13T11:12:00.364Z,7.06
2023-01-13T11:13:02.062Z,7.08
2023-01-13T11:14:03.806Z,7.07
2023-01-13T11:15:08.050Z,7.07
2023-01-13T11:16:12.495Z,7.06
2023-01-13T11:17:14.153Z,7.06
2023-01-13T11:18:15.885Z,7.01
2023-01-13T11:19:17.649Z,6.95
2023-01-13T11:20:19.369Z,6.94
2023-01-13T11:21:21.104Z,6.9
2023-01-13T11:22:22.820Z,6.8
2023-01-13T11:23:24.561Z,6.72
2023-01-13T11:24:26.283Z,6.61
2023-01-13T11:25:28.047Z,6.53
2023-01-13T11:26:29.757Z,6.45
2023-01-13T11:27:31.499Z,6.36
2023-01-13T11:28:33.222Z,6.3
2023-01-13T11:29:34.950Z,6.22
2023-01-13T11:30:36.679Z,6.18
2023-01-13T11:31:38.528Z,6.13
2023-01-13T11:32:40.137Z,6.09
2023-01-13T11:33:41.919Z,6.03
2023-01-13T11:34:43.612Z,6.01
2023-01-13T11:35:45.361Z,6.03
2023-01-13T11:36:47.081Z,6.02
2023-01-13T11:37:48.823Z,6.04
2023-01-13T11:38:50.556Z,6.06
2023-01-13T11:39:52.281Z,6.09
2023-01-13T11:40:54.028Z,6.12
2023-01-13T11:41:55.750Z,6.17
2023-01-13T11:42:57.493Z,6.21
2023-01-13T11:43:59.220Z,6.23
2023-01-13T11:45:00.957Z,6.25
2023-01-13T11:46:02.692Z,6.28
2023-01-13T11:47:04.466Z,6.29
2023-01-13T11:48:06.140Z,6.3
2023-01-13T11:49:06.178Z,6.31
2023-01-13T11:50:10.364Z,6.37
2023-01-13T11:51:12.105Z,6.46
2023-01-13T11:52:44.736Z,6.58
2023-01-13T11:53:46.467Z,6.67
2023-01-13T11:54:48.198Z,6.77
2023-01-13T11:55:49.920Z,6.87
2023-01-13T11:56:51.648Z,6.96
2023-01-13T11:57:53.361Z,7.04
2023-01-13T11:58:55.157Z,7.07
2023-01-13T11:59:56.842Z,7.13
2023-01-13T12:00:58.620Z,7.17
2023-01-13T12:02:00.395Z,7.21
2023-01-13T12:03:02.114Z,7.26
2023-01-13T12:04:03.755Z,7.29
2023-01-13T12:05:05.489Z,7.34
2023-01-13T12:06:07.225Z,7.36
2023-01-13T12:07:08.964Z,7.35
2023-01-13T12:08:10.688Z,7.36
2023-01-13T12:09:12.470Z,7.35
2023-01-13T12:10:21.557Z,7.36
2023-01-13T12:11:25.086Z,7.37
2023-01-13T12:12:26.791Z,7.46
2023-01-13T12:13:28.567Z,7.55
2023-01-13T12:14:30.279Z,7.67
2023-01-13T12:15:31.994Z,7.76
2023-01-13T12:16:33.878Z,7.87
2023-01-13T12:17:35.442Z,7.93
2023-01-13T12:18:37.203Z,7.92
2023-01-13T12:19:38.989Z,7.87
2023-01-13T12:20:40.665Z,7.81
2023-01-13T12:21:42.405Z,7.74
2023-01-13T12:22:44.134Z,7.67
2023-01-13T12:23:45.878Z,7.6
2023-01-13T12:24:47.602Z,7.59
2023-01-13T12:25:49.313Z,7.57
2023-01-13T12:26:51.057Z,7.57
2023-01-13T12:28:10.273Z,7.56
2023-01-13T12:29:11.974Z,7.59
2023-01-13T12:30:13.743Z,7.62
2023-01-13T12:31:15.452Z,7.65
2023-01-13T12:32:21.338Z,7.72
2023-01-13T12:33:24.066Z,7.75
2023-01-13T12:34:25.918Z,7.77
2023-01-13T12:35:27.540Z,7.81
2023-01-13T12:36:29.247Z,7.83
2023-01-13T12:37:31.033Z,7.85
2023-01-13T12:38:34.375Z,7.9
2023-01-13T12:39:34.459Z,7.95
2023-01-13T12:40:36.188Z,8.01
2023-01-13T12:41:37.937Z,8.02
2023-01-13T12:42:39.664Z,8.02
2023-01-13T12:43:41.409Z,8.03
2023-01-13T12:44:43.139Z,8.09
2023-01-13T12:45:44.959Z,8.14
2023-01-13T12:46:46.602Z,8.22
2023-01-13T12:47:48.346Z,8.25
2023-01-13T12:48:50.096Z,8.26
2023-01-13T12:49:51.821Z,8.31
2023-01-13T12:50:53.529Z,8.35
2023-01-13T12:53:41.729Z,8.55
2023-01-13T12:56:08.380Z,8.59
2023-01-13T12:57:10.104Z,8.55
2023-01-13T12:58:11.821Z,8.52
2023-01-13T12:59:13.534Z,8.48
2023-01-13T13:00:15.270Z,8.46
2023-01-13T13:01:17.129Z,8.43
2023-01-13T13:02:18.919Z,8.39
2023-01-13T13:03:20.442Z,8.35
2023-01-13T13:04:22.169Z,8.3
2023-01-13T13:05:23.933Z,8.24
2023-01-13T13:06:25.626Z,8.2
2023-01-13T13:07:27.376Z,8.15
2023-01-13T13:08:29.105Z,8.1
2023-01-13T13:09:30.883Z,8.06
2023-01-13T13:10:32.575Z,8.02
2023-01-13T13:11:34.295Z,8
2023-01-13T13:12:36.044Z,7.98
2023-01-13T13:13:37.758Z,8.03
2023-01-13T13:14:39.621Z,8.05
2023-01-13T13:15:41.227Z,8.08
2023-01-13T13:16:42.997Z,8.07
2023-01-13T13:17:44.701Z,8.05
2023-01-13T13:18:46.460Z,8.06
2023-01-13T13:19:48.168Z,8.05
2023-01-13T13:20:49.937Z,8.05
2023-01-13T13:21:51.642Z,8.06
2023-01-13T13:22:53.383Z,8.08
2023-01-13T13:23:55.141Z,8.1
2023-01-13T13:24:56.862Z,8.18
2023-01-13T13:25:58.580Z,8.28
2023-01-13T13:27:00.979Z,8.37
2023-01-13T13:28:02.049Z,8.44
2023-01-13T13:29:03.804Z,8.47
2023-01-13T13:30:05.505Z,8.47
2023-01-13T13:31:07.328Z,8.47
2023-01-13T13:32:08.978Z,8.47
2023-01-13T13:33:10.754Z,8.48
2023-01-13T13:34:11.543Z,8.48
2023-01-13T13:35:14.186Z,8.48
2023-01-13T13:36:15.900Z,8.48
2023-01-13T13:37:17.635Z,8.49
2023-01-13T13:38:19.388Z,8.52
2023-01-13T13:39:21.135Z,8.59
2023-01-13T13:40:22.855Z,8.64
2023-01-13T13:41:24.577Z,8.68
2023-01-13T13:42:26.319Z,8.71
2023-01-13T13:43:28.026Z,8.76
2023-01-13T13:44:29.814Z,8.8
2023-01-13T13:45:31.536Z,8.85
2023-01-13T13:46:33.290Z,8.91
2023-01-13T13:47:34.954Z,8.93
2023-01-13T13:48:36.719Z,8.96
2023-01-13T13:49:38.445Z,8.96
2023-01-13T13:50:40.175Z,8.96
2023-01-13T13:51:43.129Z,8.94
2023-01-13T13:52:44.847Z,8.92
2023-01-13T13:57:49.797Z,8.5